createdAt,value
2022-07-30T00:01:55.836Z,97.00
2022-07-30T00:04:22.717Z,97.00
2022-07-30T00:06:49.576Z,97.40
2022-07-30T00:09:16.491Z,97.10
2022-07-30T00:11:43.985Z,97.30
2022-07-30T00:14:10.861Z,97.50
2022-07-30T00:16:37.872Z,97.20
2022-07-30T00:19:04.810Z,97.30
2022-07-30T00:21:38.491Z,97.40
2022-07-30T00:24:06.761Z,97.40
2022-07-30T00:26:33.592Z,97.50
2022-07-30T00:29:00.350Z,97.60
2022-07-30T00:31:27.144Z,97.60
2022-07-30T00:33:53.836Z,97.80
2022-07-30T00:36:20.595Z,97.70
2022-07-30T00:38:47.394Z,98.00
2022-07-30T00:41:15.634Z,97.90
2022-07-30T00:43:43.433Z,98.10
2022-07-30T00:46:10.503Z,98.20
2022-07-30T00:48:37.435Z,98.20
2022-07-30T00:51:04.233Z,98.20
2022-07-30T00:53:31.020Z,98.10
2022-07-30T00:55:57.898Z,98.10
2022-07-30T00:58:24.764Z,98.30
2022-07-30T01:00:51.663Z,98.00
2022-07-30T01:03:18.440Z,98.00
2022-07-30T01:05:45.330Z,98.30
2022-07-30T01:08:12.081Z,98.30
2022-07-30T01:10:38.916Z,98.30
2022-07-30T01:13:05.768Z,98.30
2022-07-30T01:15:32.602Z,98.20
2022-07-30T01:18:00.969Z,98.00
2022-07-30T01:20:32.370Z,98.20
2022-07-30T01:23:13.271Z,98.20
2022-07-30T01:26:16.382Z,98.20
2022-07-30T01:28:47.028Z,98.20
2022-07-30T01:44:37.057Z,97.30
2022-07-30T01:47:04.201Z,97.10
2022-07-30T01:49:31.095Z,97.00
2022-07-30T01:51:58.257Z,97.00
2022-07-30T01:54:25.660Z,96.80
2022-07-30T01:56:52.641Z,96.80
2022-07-30T01:59:20.645Z,96.90
2022-07-30T02:01:48.358Z,96.80
2022-07-30T02:04:15.317Z,96.60
2022-07-30T02:06:48.369Z,96.60
2022-07-30T02:09:20.215Z,96.70
2022-07-30T02:12:06.530Z,96.50
2022-07-30T02:14:47.457Z,96.90
2022-07-30T02:17:26.573Z,96.80
2022-07-30T02:19:57.839Z,96.70
2022-07-30T02:22:25.850Z,97.10
2022-07-30T02:24:53.082Z,96.80
2022-07-30T02:27:26.653Z,97.00
2022-07-30T02:29:53.713Z,97.00
2022-07-30T02:32:21.495Z,97.20
2022-07-30T02:34:50.300Z,97.30
2022-07-30T02:37:17.586Z,97.30
2022-07-30T02:40:04.837Z,97.60
2022-07-30T02:42:31.859Z,97.60
2022-07-30T02:44:58.906Z,97.90
2022-07-30T02:47:25.932Z,98.00
2022-07-30T02:49:54.204Z,98.10
2022-07-30T02:52:21.505Z,98.30
2022-07-30T02:54:48.617Z,98.40
2022-07-30T02:57:15.613Z,98.70
2022-07-30T02:59:42.662Z,98.80
2022-07-30T03:02:10.041Z,98.90
2022-07-30T03:04:37.474Z,99.20
2022-07-30T03:07:08.646Z,99.30
2022-07-30T03:09:50.901Z,99.50
2022-07-30T03:12:19.470Z,99.60
2022-07-30T03:14:46.913Z,99.70
2022-07-30T03:17:16.181Z,99.60
2022-07-30T03:19:48.561Z,99.70
2022-07-30T03:22:21.385Z,99.70
2022-07-30T03:24:59.803Z,99.90
2022-07-30T03:27:32.972Z,99.90
2022-07-30T03:30:03.656Z,99.90
2022-07-30T03:32:31.519Z,99.90
2022-07-30T03:35:01.976Z,99.90
2022-07-30T03:37:33.782Z,99.90
2022-07-30T03:40:03.729Z,99.90
2022-07-30T03:42:31.250Z,99.90
2022-07-30T03:44:58.499Z,99.90
2022-07-30T03:47:25.628Z,99.90
2022-07-30T03:49:52.794Z,99.90
2022-07-30T03:52:20.886Z,99.90
2022-07-30T03:54:48.618Z,99.90
2022-07-30T03:57:20.206Z,99.90
2022-07-30T03:59:47.635Z,99.90
2022-07-30T04:02:14.867Z,99.90
2022-07-30T04:04:45.847Z,99.90
2022-07-30T04:07:17.021Z,99.90
2022-07-30T04:09:44.263Z,99.90
2022-07-30T04:12:14.145Z,99.90
2022-07-30T04:14:42.668Z,99.90
2022-07-30T04:17:37.143Z,99.90
2022-07-30T04:20:22.627Z,99.90
2022-07-30T04:22:50.248Z,99.90
2022-07-30T04:25:24.226Z,99.90
2022-07-30T04:27:58.215Z,99.90
2022-07-30T04:30:30.780Z,99.90
2022-07-30T04:32:57.800Z,99.90
2022-07-30T04:35:51.191Z,99.90
2022-07-30T04:38:26.518Z,99.90
2022-07-30T04:40:53.696Z,99.90
2022-07-30T04:43:21.142Z,99.90
2022-07-30T04:45:48.324Z,99.90
2022-07-30T04:48:15.345Z,99.90
2022-07-30T04:50:43.848Z,99.90
2022-07-30T04:53:10.912Z,99.90
2022-07-30T04:55:43.248Z,99.90
2022-07-30T04:58:10.725Z,99.90
2022-07-30T05:00:41.141Z,99.90
2022-07-30T05:03:08.704Z,99.90
2022-07-30T05:05:35.724Z,99.90
2022-07-30T05:08:02.829Z,99.90
2022-07-30T05:10:29.883Z,99.90
2022-07-30T05:12:56.922Z,99.90
2022-07-30T05:15:36.093Z,99.90
2022-07-30T05:18:04.390Z,99.90
2022-07-30T05:20:31.543Z,99.90
2022-07-30T05:22:59.173Z,99.90
2022-07-30T05:25:26.481Z,99.90
2022-07-30T05:27:53.573Z,99.90
2022-07-30T05:30:22.238Z,99.90
2022-07-30T05:32:54.615Z,99.90
2022-07-30T05:35:23.341Z,99.90
2022-07-30T05:37:50.550Z,99.90
2022-07-30T05:40:18.504Z,99.90
2022-07-30T05:42:47.987Z,99.90
2022-07-30T05:45:15.037Z,99.90
2022-07-30T05:47:49.872Z,99.90
2022-07-30T05:57:57.343Z,99.90
2022-07-30T06:00:24.379Z,99.90
2022-07-30T06:02:51.344Z,99.90
2022-07-30T06:05:18.550Z,99.90
2022-07-30T06:07:51.656Z,99.90
2022-07-30T06:10:18.561Z,99.90
2022-07-30T06:12:45.572Z,99.90
2022-07-30T06:15:12.744Z,99.90
2022-07-30T06:17:57.058Z,99.90
2022-07-30T06:20:31.539Z,99.90
2022-07-30T06:22:58.825Z,99.90
2022-07-30T06:25:26.094Z,99.90
2022-07-30T06:27:54.338Z,99.90
2022-07-30T06:30:21.383Z,99.90
2022-07-30T06:33:00.541Z,99.90
2022-07-30T06:35:30.652Z,99.90
2022-07-30T06:38:07.590Z,99.90
2022-07-30T06:40:35.197Z,99.90
2022-07-30T06:43:02.862Z,99.90
2022-07-30T06:45:29.922Z,99.90
2022-07-30T06:48:07.837Z,99.90
2022-07-30T06:50:55.939Z,99.90
2022-07-30T06:53:24.249Z,99.10
2022-07-30T06:55:51.299Z,98.70
2022-07-30T06:58:25.485Z,98.20
2022-07-30T07:00:52.846Z,97.90
2022-07-30T07:03:19.849Z,97.90
2022-07-30T07:05:46.868Z,97.70
2022-07-30T07:08:13.842Z,97.00
2022-07-30T07:10:41.069Z,97.00
2022-07-30T07:13:09.064Z,96.20
2022-07-30T07:15:37.596Z,96.40
2022-07-30T07:18:05.455Z,96.20
2022-07-30T07:20:33.113Z,95.50
2022-07-30T07:23:01.668Z,94.90
2022-07-30T07:25:33.857Z,94.80
2022-07-30T07:28:11.637Z,94.40
2022-07-30T07:30:44.392Z,94.60
2022-07-30T07:33:13.213Z,94.40
2022-07-30T07:36:58.166Z,93.90
2022-07-30T07:39:25.158Z,93.50
2022-07-30T07:44:27.372Z,93.00
2022-07-30T07:46:54.129Z,92.30
2022-07-30T07:49:20.902Z,92.30
2022-07-30T07:51:48.797Z,92.00
2022-07-30T07:54:22.277Z,91.20
2022-07-30T07:56:52.800Z,90.50
2022-07-30T07:59:20.028Z,90.30
2022-07-30T08:01:47.130Z,90.30
2022-07-30T08:04:16.909Z,90.00
2022-07-30T08:06:43.622Z,90.40
2022-07-30T08:09:10.400Z,90.00
2022-07-30T08:11:37.441Z,90.30
2022-07-30T08:14:04.152Z,90.10
2022-07-30T08:16:30.944Z,89.30
2022-07-30T08:18:57.699Z,88.30
2022-07-30T08:21:24.436Z,88.80
2022-07-30T08:23:51.160Z,88.80
2022-07-30T08:26:17.947Z,87.80
2022-07-30T08:28:45.765Z,87.50
2022-07-30T08:31:12.950Z,87.60
2022-07-30T08:33:40.068Z,87.00
2022-07-30T08:36:09.655Z,87.60
2022-07-30T08:38:37.493Z,87.30
2022-07-30T08:41:04.236Z,87.20
2022-07-30T08:43:31.208Z,87.30
2022-07-30T08:45:58.165Z,86.80
2022-07-30T08:48:25.119Z,87.40
2022-07-30T08:50:51.987Z,87.00
2022-07-30T08:53:18.843Z,87.50
2022-07-30T08:55:45.778Z,86.90
2022-07-30T08:58:39.100Z,87.40
2022-07-30T09:01:06.259Z,87.00
2022-07-30T09:03:33.173Z,87.60
2022-07-30T09:06:01.207Z,87.50
2022-07-30T09:08:28.018Z,88.20
2022-07-30T09:10:54.783Z,87.90
2022-07-30T09:13:25.101Z,87.80
2022-07-30T09:15:51.969Z,88.10
2022-07-30T09:18:39.332Z,88.20
2022-07-30T09:21:29.207Z,87.70
2022-07-30T09:24:03.541Z,88.30
2022-07-30T09:26:31.148Z,88.70
2022-07-30T09:29:17.807Z,87.90
2022-07-30T09:32:01.791Z,88.90
2022-07-30T09:34:39.106Z,87.80
2022-07-30T09:37:18.583Z,87.80
2022-07-30T09:39:58.816Z,88.10
2022-07-30T09:42:27.399Z,87.60
2022-07-30T09:45:14.034Z,87.50
2022-07-30T09:47:44.656Z,87.70
2022-07-30T09:50:12.960Z,87.90
2022-07-30T09:52:49.046Z,88.00
2022-07-30T09:55:29.321Z,88.10
2022-07-30T09:58:00.525Z,87.90
2022-07-30T10:00:29.171Z,88.30
2022-07-30T10:02:55.933Z,87.90
2022-07-30T10:05:24.955Z,86.80
2022-07-30T10:07:59.282Z,87.30
2022-07-30T10:10:31.214Z,86.80
2022-07-30T10:13:04.375Z,86.50
2022-07-30T10:15:34.700Z,86.60
2022-07-30T10:18:02.129Z,85.90
2022-07-30T10:20:28.902Z,86.00
2022-07-30T10:22:55.807Z,85.70
2022-07-30T10:25:27.669Z,86.20
2022-07-30T10:27:57.159Z,86.30
2022-07-30T10:30:27.806Z,85.70
2022-07-30T10:32:56.554Z,86.50
2022-07-30T10:35:34.379Z,86.60
2022-07-30T10:38:06.545Z,86.00
2022-07-30T10:40:39.619Z,85.70
2022-07-30T10:43:31.549Z,85.50
2022-07-30T10:46:29.405Z,83.80
2022-07-30T10:48:57.534Z,83.80
2022-07-30T10:51:50.264Z,83.40
2022-07-30T10:54:45.512Z,83.40
2022-07-30T10:57:31.815Z,83.20
2022-07-30T11:00:00.487Z,83.70
2022-07-30T11:02:28.678Z,81.80
2022-07-30T11:05:17.430Z,82.90
2022-07-30T11:07:45.302Z,81.30
2022-07-30T11:10:39.455Z,81.30
2022-07-30T11:13:09.091Z,81.00
2022-07-30T11:15:57.464Z,79.80
2022-07-30T11:18:25.781Z,80.70
2022-07-30T11:21:14.111Z,80.90
2022-07-30T11:23:40.993Z,81.00
2022-07-30T11:26:07.775Z,81.00
2022-07-30T11:28:45.557Z,80.00
2022-07-30T11:31:30.705Z,79.90
2022-07-30T11:34:18.111Z,80.70
2022-07-30T11:37:18.072Z,80.60
2022-07-30T11:39:55.414Z,79.90
2022-07-30T11:42:28.120Z,79.00
2022-07-30T11:45:23.097Z,79.60
2022-07-30T11:47:55.156Z,79.40
2022-07-30T11:50:32.953Z,79.70
2022-07-30T11:53:00.929Z,79.40
2022-07-30T11:55:34.577Z,78.60
2022-07-30T11:58:04.179Z,78.20
2022-07-30T12:00:41.445Z,78.20
2022-07-30T12:03:12.820Z,78.20
2022-07-30T12:05:39.687Z,79.40
2022-07-30T12:08:06.569Z,79.30
2022-07-30T12:10:39.389Z,77.90
2022-07-30T12:13:10.889Z,77.80
2022-07-30T12:15:47.269Z,78.10
2022-07-30T12:18:29.716Z,78.30
2022-07-30T12:21:01.246Z,78.70
2022-07-30T12:23:28.403Z,78.30
2022-07-30T12:25:55.484Z,78.50
2022-07-30T12:28:23.913Z,79.10
2022-07-30T12:30:54.130Z,79.40
2022-07-30T12:33:20.908Z,78.60
2022-07-30T12:35:52.826Z,78.90
2022-07-30T12:38:20.238Z,79.10
2022-07-30T12:41:03.000Z,78.70
2022-07-30T12:43:46.421Z,78.30
2022-07-30T12:46:18.244Z,77.60
2022-07-30T12:48:57.087Z,76.30
2022-07-30T12:51:26.029Z,75.90
2022-07-30T12:53:55.541Z,76.00
2022-07-30T12:56:24.227Z,75.50
2022-07-30T12:58:51.212Z,74.90
2022-07-30T13:01:18.086Z,74.70
2022-07-30T13:03:45.615Z,74.00
2022-07-30T13:06:25.524Z,73.70
2022-07-30T13:08:57.752Z,73.30
2022-07-30T13:11:26.333Z,72.80
2022-07-30T13:13:53.235Z,71.90
2022-07-30T13:16:20.344Z,72.20
2022-07-30T13:18:47.190Z,71.90
2022-07-30T13:21:14.221Z,70.60
2022-07-30T13:23:41.484Z,70.50
2022-07-30T13:26:08.646Z,69.60
2022-07-30T13:28:35.475Z,69.10
2022-07-30T13:31:02.285Z,67.90
2022-07-30T13:33:29.050Z,67.60
2022-07-30T13:35:55.836Z,67.70
2022-07-30T13:38:22.743Z,68.10
2022-07-30T13:40:49.755Z,67.60
2022-07-30T13:43:16.605Z,67.50
2022-07-30T13:45:43.554Z,67.00
2022-07-30T13:48:10.679Z,67.30
2022-07-30T13:50:37.395Z,66.60
2022-07-30T13:53:05.574Z,66.40
2022-07-30T13:55:32.416Z,65.10
2022-07-30T13:57:59.825Z,64.70
2022-07-30T14:00:32.708Z,64.10
2022-07-30T14:03:05.572Z,63.90
2022-07-30T14:05:35.940Z,62.90
2022-07-30T14:08:09.425Z,62.50
2022-07-30T14:10:37.153Z,63.60
2022-07-30T14:13:04.486Z,64.20
2022-07-30T14:15:31.585Z,63.70
2022-07-30T14:17:58.881Z,64.50
2022-07-30T14:20:28.987Z,65.00
2022-07-30T14:22:56.220Z,65.00
2022-07-30T14:25:23.001Z,65.00
2022-07-30T14:27:49.780Z,65.10
2022-07-30T14:30:16.599Z,64.80
2022-07-30T14:32:43.440Z,65.10
2022-07-30T14:35:10.479Z,65.30
2022-07-30T14:37:38.814Z,65.30
2022-07-30T14:40:07.039Z,66.20
2022-07-30T14:42:33.782Z,66.40
2022-07-30T14:45:00.667Z,67.60
2022-07-30T14:47:27.386Z,67.90
2022-07-30T14:49:54.377Z,68.40
2022-07-30T14:52:21.116Z,68.40
2022-07-30T14:54:47.915Z,68.70
2022-07-30T14:57:15.288Z,69.00
2022-07-30T14:59:42.055Z,68.70
2022-07-30T15:02:10.677Z,68.70
2022-07-30T15:04:37.800Z,68.40
2022-07-30T15:07:04.581Z,67.80
2022-07-30T15:09:34.139Z,68.00
2022-07-30T15:12:08.260Z,68.30
2022-07-30T15:14:37.984Z,67.80
2022-07-30T15:17:04.809Z,68.30
2022-07-30T15:19:34.437Z,67.90
2022-07-30T15:22:02.756Z,68.10
2022-07-30T15:24:30.052Z,68.70
2022-07-30T15:26:56.778Z,69.50
2022-07-30T15:29:24.289Z,70.00
2022-07-30T15:31:53.604Z,70.90
2022-07-30T15:34:20.317Z,71.80
2022-07-30T15:36:47.008Z,72.80
2022-07-30T15:39:15.521Z,73.30
2022-07-30T15:41:42.488Z,73.70
2022-07-30T15:44:09.220Z,74.10
2022-07-30T15:46:36.213Z,75.00
2022-07-30T15:49:03.096Z,75.60
2022-07-30T15:51:31.384Z,76.10
2022-07-30T15:53:58.082Z,76.70
2022-07-30T15:56:26.475Z,77.00
2022-07-30T15:58:53.429Z,77.60
2022-07-30T16:01:20.303Z,78.00
2022-07-30T16:03:47.122Z,78.50
2022-07-30T16:06:14.589Z,78.80
2022-07-30T16:08:41.517Z,79.00
2022-07-30T16:11:10.847Z,79.50
2022-07-30T16:13:37.888Z,80.00
2022-07-30T16:16:05.019Z,79.90
2022-07-30T16:18:31.928Z,79.80
2022-07-30T16:21:01.077Z,80.00
2022-07-30T16:23:28.255Z,80.10
2022-07-30T16:26:03.164Z,80.10
2022-07-30T16:28:29.882Z,80.40
2022-07-30T16:30:56.643Z,80.20
2022-07-30T16:33:23.426Z,80.70
2022-07-30T16:35:50.961Z,80.90
2022-07-30T16:38:19.418Z,81.60
2022-07-30T16:40:46.319Z,80.70
2022-07-30T16:43:14.135Z,80.30
2022-07-30T16:45:43.815Z,80.40
2022-07-30T16:48:11.449Z,80.00
2022-07-30T16:50:40.571Z,79.40
2022-07-30T16:53:13.710Z,78.60
2022-07-30T16:55:41.987Z,78.10
2022-07-30T16:58:09.092Z,78.50
2022-07-30T17:00:35.880Z,78.60
2022-07-30T17:03:02.646Z,79.00
2022-07-30T17:05:29.383Z,79.20
2022-07-30T17:07:56.264Z,79.60
2022-07-30T17:10:25.601Z,79.70
2022-07-30T17:12:53.325Z,80.00
2022-07-30T17:15:20.034Z,80.10
2022-07-30T17:17:58.597Z,80.40
2022-07-30T17:20:25.311Z,80.30
2022-07-30T17:22:55.152Z,80.40
2022-07-30T17:25:23.126Z,80.10
2022-07-30T17:27:49.925Z,79.90
2022-07-30T17:30:16.598Z,80.40
2022-07-30T17:32:43.269Z,80.30
2022-07-30T17:35:13.856Z,80.00
2022-07-30T17:37:41.006Z,80.10
2022-07-30T17:40:28.257Z,80.60
2022-07-30T17:42:55.367Z,80.90
2022-07-30T17:45:22.199Z,81.00
2022-07-30T17:47:49.088Z,81.60
2022-07-30T17:50:17.036Z,81.70
2022-07-30T17:52:43.845Z,82.10
2022-07-30T17:55:12.568Z,82.40
2022-07-30T17:57:39.845Z,82.90
2022-07-30T18:00:07.887Z,83.00
2022-07-30T18:02:34.643Z,83.10
2022-07-30T18:05:01.993Z,83.10
2022-07-30T18:07:28.764Z,83.40
2022-07-30T18:09:55.577Z,83.40
2022-07-30T18:12:22.515Z,83.60
2022-07-30T18:14:49.217Z,83.80
2022-07-30T18:17:15.927Z,84.40
2022-07-30T18:19:42.653Z,84.20
2022-07-30T18:22:09.740Z,84.20
2022-07-30T18:24:40.393Z,84.70
2022-07-30T18:27:12.031Z,85.10
2022-07-30T18:29:38.813Z,85.30
2022-07-30T18:32:06.374Z,85.50
2022-07-30T18:34:33.360Z,85.60
2022-07-30T18:37:00.348Z,86.10
2022-07-30T18:39:27.173Z,86.40
2022-07-30T18:41:53.880Z,86.80
2022-07-30T18:44:20.661Z,87.10
2022-07-30T18:46:47.633Z,87.30
2022-07-30T18:49:35.684Z,87.30
2022-07-30T18:52:02.943Z,87.60
2022-07-30T18:54:30.102Z,87.90
2022-07-30T18:56:56.870Z,88.10
2022-07-30T18:59:23.661Z,87.80
2022-07-30T19:01:50.722Z,88.10
2022-07-30T19:04:17.584Z,88.10
2022-07-30T19:06:44.576Z,88.40
2022-07-30T19:09:17.306Z,88.20
2022-07-30T19:11:45.194Z,87.90
2022-07-30T19:14:13.154Z,88.10
2022-07-30T19:16:40.518Z,88.60
2022-07-30T19:19:07.299Z,89.10
2022-07-30T19:21:33.977Z,90.20
2022-07-30T19:24:00.910Z,90.80
2022-07-30T19:26:28.652Z,91.40
2022-07-30T19:28:55.421Z,92.10
2022-07-30T19:31:22.190Z,91.90
2022-07-30T19:33:49.351Z,92.10
2022-07-30T19:36:19.010Z,92.20
2022-07-30T19:38:45.762Z,92.50
2022-07-30T19:41:13.962Z,92.70
2022-07-30T19:43:40.999Z,92.70
2022-07-30T19:46:08.140Z,92.80
2022-07-30T19:48:37.418Z,92.80
2022-07-30T19:51:04.589Z,93.00
2022-07-30T19:53:34.028Z,93.00
2022-07-30T19:56:03.124Z,93.20
2022-07-30T19:58:30.760Z,93.60
2022-07-30T20:00:57.563Z,93.70
2022-07-30T20:03:25.941Z,93.50
2022-07-30T20:05:57.616Z,93.70
2022-07-30T20:08:26.945Z,94.20
2022-07-30T20:10:57.307Z,94.30
2022-07-30T20:13:43.831Z,94.40
2022-07-30T20:16:12.503Z,94.80
2022-07-30T20:18:39.811Z,95.10
2022-07-30T20:21:12.518Z,95.30
2022-07-30T20:23:41.385Z,95.50
2022-07-30T20:26:12.475Z,95.60
2022-07-30T20:28:40.999Z,95.70
2022-07-30T20:31:08.743Z,95.80
2022-07-30T20:33:39.054Z,96.10
2022-07-30T20:36:06.326Z,96.40
2022-07-30T20:38:38.945Z,96.60
2022-07-30T20:41:10.052Z,97.00
2022-07-30T20:43:51.440Z,97.30
2022-07-30T20:46:19.889Z,97.40
2022-07-30T20:48:46.760Z,97.60
2022-07-30T20:51:14.001Z,97.80
2022-07-30T20:53:45.238Z,98.00
2022-07-30T20:56:13.456Z,98.10
2022-07-30T20:58:41.693Z,98.30
2022-07-30T21:01:15.497Z,98.60
2022-07-30T21:03:47.719Z,98.70
2022-07-30T21:06:15.831Z,99.20
2022-07-30T21:08:42.638Z,99.00
2022-07-30T21:11:09.763Z,99.10
2022-07-30T21:13:36.899Z,99.20
2022-07-30T21:16:04.433Z,99.30
2022-07-30T21:18:50.366Z,99.40
2022-07-30T21:21:29.219Z,99.60
2022-07-30T21:24:05.504Z,99.90
2022-07-30T21:26:32.321Z,99.90
2022-07-30T21:29:00.772Z,99.90
2022-07-30T21:31:56.018Z,99.90
2022-07-30T21:34:14.823Z,99.90
2022-07-30T21:36:42.784Z,99.90
2022-07-30T21:39:10.024Z,99.90
2022-07-30T21:41:41.201Z,99.90
2022-07-30T21:44:08.337Z,99.90
2022-07-30T21:46:37.711Z,99.90
2022-07-30T21:49:07.250Z,99.90
2022-07-30T21:51:34.471Z,99.90
2022-07-30T21:54:01.246Z,99.90
2022-07-30T21:56:29.348Z,99.90
2022-07-30T21:58:56.254Z,99.90
2022-07-30T22:01:23.084Z,99.90
2022-07-30T22:04:03.554Z,99.90
2022-07-30T22:06:35.684Z,99.90
2022-07-30T22:09:09.960Z,99.90
2022-07-30T22:11:45.623Z,99.90
2022-07-30T22:14:13.306Z,99.90
2022-07-30T22:16:45.877Z,99.90
2022-07-30T22:19:14.556Z,99.90
2022-07-30T22:21:42.421Z,99.90
2022-07-30T22:24:09.181Z,99.90
2022-07-30T22:26:35.918Z,99.90
2022-07-30T22:29:02.713Z,99.90
2022-07-30T22:31:30.926Z,99.90
2022-07-30T22:34:11.591Z,99.90
2022-07-30T22:36:38.610Z,99.90
2022-07-30T22:39:08.886Z,99.90
2022-07-30T22:41:35.800Z,99.90
2022-07-30T22:44:03.921Z,99.90
2022-07-30T22:46:32.032Z,99.90
2022-07-30T22:48:59.416Z,99.90
2022-07-30T22:52:02.802Z,99.90
2022-07-30T22:54:13.779Z,99.90
2022-07-30T22:56:41.609Z,99.90
2022-07-30T22:59:13.029Z,99.90
2022-07-30T23:01:43.318Z,99.90
2022-07-30T23:04:10.441Z,99.90
2022-07-30T23:06:37.433Z,99.90
2022-07-30T23:09:07.877Z,99.90
2022-07-30T23:11:38.779Z,99.90
2022-07-30T23:14:06.493Z,99.90
2022-07-30T23:16:33.288Z,99.90
2022-07-30T23:19:00.176Z,99.90
2022-07-30T23:21:27.011Z,99.90
2022-07-30T23:23:53.803Z,99.90
2022-07-30T23:26:20.506Z,99.90
2022-07-30T23:28:49.997Z,99.90
2022-07-30T23:31:16.779Z,99.90
2022-07-30T23:33:43.599Z,99.90
2022-07-30T23:36:10.404Z,99.90
2022-07-30T23:38:37.568Z,99.90
2022-07-30T23:41:04.463Z,99.90
2022-07-30T23:43:31.479Z,99.90
2022-07-30T23:45:58.318Z,99.90
2022-07-30T23:48:25.005Z,99.90
2022-07-30T23:50:52.029Z,99.90
2022-07-30T23:53:18.927Z,99.90
2022-07-30T23:55:46.928Z,99.90
2022-07-30T23:58:13.790Z,99.90
